Time;durP1;ratioP1;P1;durP2;ratioP2;P2;SDS_P1;SDS_P2;PMS_P1;PMS_P2;Temp;Humidity;BMP_temperature;BMP_pressure;BME280_temperature;BME280_humidity;BME280_pressure;Samples;Min_cycle;Max_cycle;Signal;HPM_P1;HPM_P2
2024/02/23 00:00:14;;;;;;;0.90;0.90;;;11.40;82.50;;;;;;4786555;29;20027;-80
2024/02/23 00:02:40;;;;;;;1.00;1.00;;;11.40;82.60;;;;;;4775625;29;20045;-84
2024/02/23 00:05:06;;;;;;;0.90;0.90;;;11.30;82.60;;;;;;4780099;29;20031;-89
2024/02/23 00:07:32;;;;;;;1.00;1.00;;;11.30;82.60;;;;;;4793700;29;20033;-83
2024/02/23 00:09:57;;;;;;;2.25;1.20;;;11.30;82.60;;;;;;4825197;29;20026;-92
2024/02/23 00:12:23;;;;;;;1.77;1.20;;;11.20;82.60;;;;;;4804438;29;20449;-90
2024/02/23 00:14:50;;;;;;;2.60;1.20;;;11.20;82.60;;;;;;4810396;29;20384;-90
2024/02/23 00:17:16;;;;;;;2.03;1.10;;;11.20;82.70;;;;;;4793704;29;20038;-92
2024/02/23 00:19:44;;;;;;;1.30;1.10;;;11.10;82.70;;;;;;4819422;29;20053;-79
2024/02/23 00:22:10;;;;;;;1.38;1.20;;;11.10;82.70;;;;;;4794717;29;20566;-80
2024/02/23 00:24:36;;;;;;;1.63;1.00;;;11.10;82.70;;;;;;4797934;29;20121;-92
2024/02/23 00:27:02;;;;;;;1.00;1.00;;;11.10;82.70;;;;;;4806729;29;20035;-92
2024/02/23 00:29:28;;;;;;;3.20;1.30;;;11.10;82.80;;;;;;4791612;29;20045;-90
2024/02/23 00:31:54;;;;;;;1.77;1.58;;;11.00;82.70;;;;;;4807100;29;20078;-90
2024/02/23 00:34:19;;;;;;;2.40;1.20;;;11.00;82.80;;;;;;4823467;29;20121;-92
2024/02/23 00:36:45;;;;;;;2.13;1.30;;;10.90;82.70;;;;;;4823435;29;20412;-80
2024/02/23 00:39:12;;;;;;;1.95;1.20;;;10.90;82.80;;;;;;4791625;29;20121;-91
2024/02/23 00:41:38;;;;;;;1.30;1.20;;;10.90;82.80;;;;;;4820225;29;20179;-92
2024/02/23 00:44:04;;;;;;;2.15;1.20;;;10.90;82.80;;;;;;4805818;29;20035;-89
2024/02/23 00:46:30;;;;;;;1.27;1.10;;;10.80;82.80;;;;;;4805865;29;20041;-80
2024/02/23 00:48:57;;;;;;;1.88;1.30;;;10.80;82.80;;;;;;4803136;29;20566;-89
2024/02/23 00:51:23;;;;;;;2.00;1.30;;;10.80;82.80;;;;;;4809363;29;20038;-84
2024/02/23 00:53:49;;;;;;;1.40;1.30;;;10.80;82.80;;;;;;4803366;29;20042;-84
2024/02/23 00:56:15;;;;;;;3.08;1.40;;;10.80;82.90;;;;;;4833547;29;20046;-84
2024/02/23 00:58:41;;;;;;;2.08;1.40;;;10.70;82.80;;;;;;4810162;29;20022;-80
2024/02/23 01:01:06;;;;;;;2.10;1.40;;;10.70;82.80;;;;;;4808739;29;20032;-84
2024/02/23 01:03:32;;;;;;;1.30;1.20;;;10.70;82.80;;;;;;4784500;29;20563;-80
2024/02/23 01:05:58;;;;;;;2.60;1.30;;;10.70;82.90;;;;;;4798906;29;20027;-93
2024/02/23 01:08:24;;;;;;;2.00;1.45;;;10.60;82.80;;;;;;4821205;29;20118;-80
2024/02/23 01:10:50;;;;;;;1.92;1.40;;;10.60;82.80;;;;;;4794322;29;20062;-89
2024/02/23 01:13:16;;;;;;;1.98;1.60;;;10.60;82.90;;;;;;4798773;29;20064;-84
2024/02/23 01:15:42;;;;;;;1.50;1.40;;;10.60;82.90;;;;;;4802598;29;20030;-89
2024/02/23 01:18:08;;;;;;;2.85;1.50;;;10.60;83.50;;;;;;4811391;29;20034;-92
2024/02/23 01:20:34;;;;;;;2.78;1.80;;;10.50;82.80;;;;;;4824417;29;20492;-92
2024/02/23 01:23:00;;;;;;;3.15;1.60;;;10.50;82.80;;;;;;4791006;29;20038;-84
2024/02/23 01:25:26;;;;;;;3.30;2.00;;;10.50;82.90;;;;;;4810223;29;20049;-89
2024/02/23 01:27:53;;;;;;;3.40;1.90;;;10.50;82.90;;;;;;4817987;29;20031;-90
2024/02/23 01:30:19;;;;;;;3.70;2.20;;;10.50;82.90;;;;;;4791703;29;20552;-92
2024/02/23 01:32:45;;;;;;;4.32;2.30;;;10.40;82.80;;;;;;4808141;29;20198;-89
2024/02/23 01:35:11;;;;;;;3.10;2.17;;;10.40;82.90;;;;;;4820328;29;20052;-89
2024/02/23 01:37:37;;;;;;;3.22;2.30;;;10.40;82.90;;;;;;4795603;29;20030;-89
2024/02/23 01:40:03;;;;;;;3.15;2.47;;;10.40;82.90;;;;;;4802727;29;20144;-92
2024/02/23 01:42:29;;;;;;;3.60;2.53;;;10.40;82.90;;;;;;4790311;29;20058;-91
2024/02/23 01:44:58;;;;;;;3.42;2.10;;;10.30;82.90;;;;;;4797884;29;20423;-91
2024/02/23 01:47:24;;;;;;;3.55;2.28;;;10.30;82.90;;;;;;4790083;29;20186;-79
2024/02/23 01:49:51;;;;;;;3.42;2.70;;;10.30;82.90;;;;;;4802530;29;20046;-89
2024/02/23 01:52:17;;;;;;;3.70;2.55;;;10.30;82.90;;;;;;4800350;29;20038;-84
2024/02/23 01:54:44;;;;;;;3.42;2.47;;;10.30;82.90;;;;;;4819756;29;20254;-91
2024/02/23 01:57:10;;;;;;;3.13;2.40;;;10.30;82.90;;;;;;4803327;29;20034;-91
2024/02/23 01:59:37;;;;;;;3.53;2.33;;;10.30;82.90;;;;;;4798081;29;20034;-88
2024/02/23 02:02:04;;;;;;;3.33;2.25;;;10.20;82.90;;;;;;4795644;29;20114;-80
2024/02/23 02:04:30;;;;;;;3.30;2.30;;;10.20;82.90;;;;;;4798283;29;20495;-80
2024/02/23 02:06:59;;;;;;;2.83;2.10;;;10.20;82.90;;;;;;4821354;29;20121;-80
2024/02/23 02:09:25;;;;;;;4.65;2.10;;;10.20;82.90;;;;;;4823977;29;20052;-85
2024/02/23 02:11:51;;;;;;;3.50;2.38;;;10.20;82.90;;;;;;4814455;29;20034;-84
2024/02/23 02:14:20;;;;;;;2.95;2.20;;;10.10;82.90;;;;;;4790320;29;20040;-84
2024/02/23 02:16:46;;;;;;;2.33;2.10;;;10.10;82.90;;;;;;4786843;29;20027;-88
2024/02/23 02:19:12;;;;;;;3.17;1.95;;;10.10;82.90;;;;;;4791176;29;20091;-87
2024/02/23 02:21:39;;;;;;;3.05;1.90;;;10.10;82.90;;;;;;4824930;29;20079;-80
2024/02/23 02:24:06;;;;;;;2.58;1.77;;;10.10;82.90;;;;;;4802545;29;20038;-84
2024/02/23 02:26:32;;;;;;;3.25;1.80;;;10.10;82.90;;;;;;4813416;29;20026;-84
2024/02/23 02:28:59;;;;;;;3.83;2.15;;;10.00;82.90;;;;;;4799485;29;20102;-88
2024/02/23 02:31:25;;;;;;;3.13;1.90;;;10.00;82.90;;;;;;4784598;29;20596;-80
2024/02/23 02:33:52;;;;;;;2.03;1.60;;;10.00;82.90;;;;;;4787457;29;20820;-87
2024/02/23 02:36:19;;;;;;;2.47;1.92;;;10.00;82.90;;;;;;4811715;29;20058;-89
2024/02/23 02:38:50;;;;;;;3.47;1.90;;;9.90;82.90;;;;;;4804386;29;20090;-91
2024/02/23 02:41:18;;;;;;;3.47;1.92;;;9.90;82.80;;;;;;4817832;29;20066;-91
2024/02/23 02:43:44;;;;;;;2.28;1.60;;;9.90;82.90;;;;;;4802818;29;20451;-80
2024/02/23 02:46:09;;;;;;;2.08;1.60;;;9.90;82.90;;;;;;4787539;29;20054;-88
2024/02/23 02:48:35;;;;;;;2.97;1.80;;;9.90;82.90;;;;;;4818565;29;20506;-84
2024/02/23 02:51:01;;;;;;;2.28;1.60;;;9.90;82.90;;;;;;4812875;29;20071;-84
2024/02/23 02:53:27;;;;;;;3.50;1.60;;;9.80;82.90;;;;;;4821676;29;20144;-84
2024/02/23 02:55:52;;;;;;;2.72;1.60;;;9.80;83.50;;;;;;4819498;29;20074;-85
2024/02/23 02:58:18;;;;;;;2.40;1.60;;;9.80;82.80;;;;;;4812831;29;20033;-85
2024/02/23 03:00:44;;;;;;;2.40;1.45;;;9.80;82.90;;;;;;4821024;29;20342;-88
2024/02/23 03:03:10;;;;;;;2.45;1.70;;;9.80;82.90;;;;;;4819706;29;20027;-87
2024/02/23 03:05:35;;;;;;;2.03;1.52;;;9.70;82.80;;;;;;4786153;29;20121;-91
2024/02/23 03:08:01;;;;;;;1.95;1.70;;;9.70;82.90;;;;;;4790120;29;20087;-84
2024/02/23 03:10:27;;;;;;;2.42;1.50;;;9.70;82.90;;;;;;4799894;29;20492;-90
2024/02/23 03:12:53;;;;;;;2.92;1.85;;;9.70;82.80;;;;;;4817885;29;20034;-79
2024/02/23 03:15:19;;;;;;;2.17;1.38;;;9.70;82.90;;;;;;4798995;29;20058;-80
2024/02/23 03:17:45;;;;;;;3.55;1.75;;;9.60;82.80;;;;;;4802372;29;20139;-80
2024/02/23 03:20:11;;;;;;;2.20;1.40;;;9.60;82.80;;;;;;4820997;29;20027;-90
2024/02/23 03:22:38;;;;;;;3.33;1.50;;;9.60;82.80;;;;;;4816192;29;20041;-91
2024/02/23 03:25:09;;;;;;;1.50;1.40;;;9.60;82.80;;;;;;4815365;29;20105;-85
2024/02/23 03:27:37;;;;;;;3.97;1.75;;;9.60;82.90;;;;;;4816716;29;20491;-84
2024/02/23 03:30:04;;;;;;;1.50;1.40;;;9.60;82.90;;;;;;4790171;29;20038;-84
2024/02/23 03:32:36;;;;;;;1.50;1.40;;;9.60;82.90;;;;;;4822266;29;20049;-85
2024/02/23 03:35:08;;;;;;;2.17;1.50;;;9.50;82.80;;;;;;4803560;29;20031;-80
2024/02/23 03:37:34;;;;;;;2.80;1.65;;;9.50;82.80;;;;;;4794101;29;20122;-91
2024/02/23 03:40:00;;;;;;;2.72;1.30;;;9.50;82.80;;;;;;4787655;29;20064;-88
2024/02/23 03:42:27;;;;;;;1.33;1.20;;;9.50;82.90;;;;;;4820137;29;20081;-91
2024/02/23 03:44:53;;;;;;;2.28;1.60;;;9.50;82.80;;;;;;4813601;29;20098;-84
2024/02/23 03:47:20;;;;;;;2.40;1.40;;;9.40;82.80;;;;;;4813537;29;20058;-87
2024/02/23 03:49:46;;;;;;;2.33;1.45;;;9.40;82.80;;;;;;4793628;29;20172;-91
2024/02/23 03:52:12;;;;;;;2.72;1.60;;;9.40;82.80;;;;;;4823439;29;20034;-79
2024/02/23 03:54:41;;;;;;;1.90;1.50;;;9.40;82.80;;;;;;4826222;29;20034;-87
2024/02/23 03:57:06;;;;;;;2.13;1.48;;;9.40;82.80;;;;;;4800274;29;20035;-87
2024/02/23 03:59:35;;;;;;;3.17;1.60;;;9.40;82.90;;;;;;4812266;29;20122;-90
2024/02/23 04:02:01;;;;;;;1.98;1.70;;;9.40;82.90;;;;;;4793577;29;20039;-79
2024/02/23 04:04:27;;;;;;;2.38;1.40;;;9.30;82.80;;;;;;4806523;29;20037;-84
2024/02/23 04:06:53;;;;;;;2.20;1.30;;;9.30;82.80;;;;;;4821785;29;20037;-79
2024/02/23 04:09:18;;;;;;;3.55;1.48;;;9.40;82.90;;;;;;4810812;29;20395;-90
2024/02/23 04:11:47;;;;;;;2.03;1.48;;;9.30;82.80;;;;;;4809926;29;20487;-87
2024/02/23 04:14:13;;;;;;;2.40;1.73;;;9.30;82.80;;;;;;4807323;29;20035;-92
2024/02/23 04:16:39;;;;;;;2.58;1.55;;;9.30;82.80;;;;;;4798276;29;20042;-87
2024/02/23 04:19:04;;;;;;;3.15;1.50;;;9.30;82.90;;;;;;4808635;29;20034;-92
2024/02/23 04:21:30;;;;;;;3.42;1.77;;;9.30;82.90;;;;;;4808765;29;20034;-80
2024/02/23 04:23:58;;;;;;;3.00;1.60;;;9.20;82.80;;;;;;4802270;29;20031;-92
2024/02/23 04:26:25;;;;;;;3.65;1.65;;;9.20;82.80;;;;;;4809509;29;20046;-80
2024/02/23 04:28:52;;;;;;;2.17;1.67;;;9.20;82.80;;;;;;4786756;29;20136;-91
2024/02/23 04:31:18;;;;;;;2.85;1.90;;;9.20;82.90;;;;;;4809048;29;20034;-85
2024/02/23 04:33:43;;;;;;;2.78;1.60;;;9.20;82.80;;;;;;4829407;29;20117;-85
2024/02/23 04:36:09;;;;;;;2.38;1.60;;;9.20;82.80;;;;;;4823427;29;20038;-80
2024/02/23 04:38:35;;;;;;;2.35;1.50;;;9.20;82.80;;;;;;4808561;29;20109;-85
2024/02/23 04:41:05;;;;;;;3.10;1.70;;;9.20;82.80;;;;;;4812675;29;20031;-84
2024/02/23 04:43:32;;;;;;;1.65;1.55;;;9.10;82.80;;;;;;4786858;29;20125;-80
2024/02/23 04:45:58;;;;;;;2.63;1.42;;;9.10;82.80;;;;;;4814519;29;20034;-86
2024/02/23 04:48:27;;;;;;;2.35;1.60;;;9.10;82.80;;;;;;4799313;29;20041;-91
2024/02/23 04:50:53;;;;;;;2.58;1.65;;;9.10;82.80;;;;;;4821712;29;20038;-84
2024/02/23 04:53:19;;;;;;;2.13;1.60;;;9.10;82.80;;;;;;4798909;29;20375;-88
2024/02/23 04:55:45;;;;;;;2.85;1.80;;;9.10;82.80;;;;;;4813536;29;20064;-87
2024/02/23 04:58:11;;;;;;;2.25;1.50;;;9.10;82.80;;;;;;4828640;29;20037;-80
2024/02/23 05:00:38;;;;;;;2.53;1.60;;;9.10;82.80;;;;;;4815041;29;20491;-80
2024/02/23 05:03:06;;;;;;;1.70;1.52;;;9.00;82.80;;;;;;4827840;29;20033;-85
2024/02/23 05:05:32;;;;;;;1.67;1.58;;;9.00;82.80;;;;;;4806426;29;20083;-91
2024/02/23 05:07:58;;;;;;;4.30;1.88;;;9.00;82.80;;;;;;4812766;29;20495;-84
2024/02/23 05:10:23;;;;;;;2.53;1.70;;;9.00;82.80;;;;;;4812340;29;20515;-84
2024/02/23 05:12:50;;;;;;;3.28;1.75;;;9.00;82.80;;;;;;4806912;29;20049;-84
2024/02/23 05:15:15;;;;;;;3.83;1.80;;;9.00;83.40;;;;;;4805714;29;20480;-80
2024/02/23 05:17:41;;;;;;;3.10;1.80;;;9.00;82.80;;;;;;4828458;29;20509;-87
2024/02/23 05:20:10;;;;;;;3.00;1.60;;;9.00;82.80;;;;;;4807302;29;20065;-80
2024/02/23 05:22:39;;;;;;;4.35;1.63;;;8.90;82.70;;;;;;4824746;29;20033;-91
2024/02/23 05:25:07;;;;;;;2.85;1.70;;;9.00;82.80;;;;;;4814364;29;20088;-80
2024/02/23 05:27:33;;;;;;;1.83;1.50;;;8.90;82.80;;;;;;4809185;29;20068;-80
2024/02/23 05:29:59;;;;;;;2.08;1.70;;;8.90;82.80;;;;;;4822636;29;20503;-80
2024/02/23 05:32:24;;;;;;;3.63;1.70;;;8.90;82.80;;;;;;4806419;29;20118;-80
2024/02/23 05:34:52;;;;;;;1.80;1.50;;;8.90;82.80;;;;;;4805252;29;20031;-84
2024/02/23 05:37:19;;;;;;;4.50;1.73;;;8.90;82.80;;;;;;4813794;29;20031;-80
2024/02/23 05:39:45;;;;;;;2.42;1.50;;;8.90;82.80;;;;;;4820735;29;20449;-84
2024/02/23 05:42:14;;;;;;;1.60;1.50;;;8.90;82.80;;;;;;4801810;29;20123;-80
2024/02/23 05:44:44;;;;;;;4.40;1.75;;;8.90;82.80;;;;;;4795145;29;20023;-90
2024/02/23 05:47:10;;;;;;;2.13;1.58;;;8.90;82.80;;;;;;4799684;29;20038;-80
2024/02/23 05:49:36;;;;;;;2.35;1.70;;;8.90;82.80;;;;;;4807292;29;20095;-86
2024/02/23 05:52:02;;;;;;;2.45;1.60;;;8.90;82.80;;;;;;4790653;29;20425;-86
2024/02/23 05:54:28;;;;;;;2.28;1.52;;;8.90;82.80;;;;;;4822238;29;20037;-84
2024/02/23 05:56:53;;;;;;;2.13;1.63;;;8.90;82.80;;;;;;4802676;29;20407;-85
2024/02/23 05:59:21;;;;;;;3.45;1.65;;;8.90;82.80;;;;;;4817815;29;20778;-91
2024/02/23 06:01:46;;;;;;;2.75;1.67;;;8.90;82.90;;;;;;4823448;29;20183;-80
2024/02/23 06:04:12;;;;;;;1.63;1.50;;;8.80;82.80;;;;;;4802972;29;20121;-82
2024/02/23 06:06:43;;;;;;;1.77;1.50;;;8.90;82.80;;;;;;4804096;29;20158;-85
2024/02/23 06:09:09;;;;;;;3.30;1.70;;;8.80;82.80;;;;;;4825242;29;20395;-82
2024/02/23 06:11:35;;;;;;;3.70;1.90;;;8.90;82.80;;;;;;4803984;29;20030;-89
2024/02/23 06:14:01;;;;;;;3.10;1.70;;;8.90;82.80;;;;;;4809437;29;20049;-86
2024/02/23 06:16:27;;;;;;;3.33;1.92;;;8.80;82.80;;;;;;4809672;29;20529;-89
2024/02/23 06:18:52;;;;;;;2.20;1.90;;;8.80;82.80;;;;;;4804817;29;20047;-85
2024/02/23 06:21:18;;;;;;;3.15;1.52;;;8.90;82.80;;;;;;4806541;29;20030;-80
2024/02/23 06:23:45;;;;;;;2.20;1.60;;;8.80;82.80;;;;;;4802827;29;20043;-93
2024/02/23 06:26:11;;;;;;;2.15;1.70;;;8.80;82.80;;;;;;4821460;29;20167;-92
2024/02/23 06:28:38;;;;;;;2.33;1.63;;;8.90;82.90;;;;;;4806874;29;20030;-85
2024/02/23 06:31:08;;;;;;;2.20;1.65;;;8.80;82.80;;;;;;4804045;29;20175;-86
2024/02/23 06:33:33;;;;;;;3.30;1.80;;;8.80;82.80;;;;;;4808735;29;20066;-83
2024/02/23 06:36:00;;;;;;;2.00;1.80;;;8.90;82.80;;;;;;4820770;29;20043;-81
2024/02/23 06:38:26;;;;;;;2.75;1.77;;;8.80;82.80;;;;;;4804817;29;20047;-80
2024/02/23 06:40:56;;;;;;;2.75;1.70;;;8.80;82.80;;;;;;4809138;29;20034;-93
2024/02/23 06:43:22;;;;;;;2.83;1.60;;;8.90;82.80;;;;;;4801728;29;20126;-88
2024/02/23 06:45:50;;;;;;;4.60;1.98;;;8.80;82.80;;;;;;4790132;29;20555;-91
2024/02/23 06:48:15;;;;;;;2.90;1.80;;;8.80;82.80;;;;;;4808536;29;20034;-93
2024/02/23 06:50:41;;;;;;;2.33;1.80;;;8.80;82.80;;;;;;4823656;29;20033;-91
2024/02/23 06:53:08;;;;;;;2.15;1.85;;;8.80;82.80;;;;;;4789756;29;20030;-81
2024/02/23 06:55:35;;;;;;;2.67;1.70;;;8.80;82.80;;;;;;4804079;29;20038;-92
2024/02/23 06:58:01;;;;;;;1.88;1.67;;;8.80;82.80;;;;;;4792956;29;20030;-93
2024/02/23 07:00:30;;;;;;;2.38;1.95;;;8.80;82.80;;;;;;4799805;29;20036;-83
2024/02/23 07:02:58;;;;;;;2.60;1.58;;;8.80;82.90;;;;;;4803127;29;20030;-79
2024/02/23 07:05:25;;;;;;;2.45;1.70;;;8.80;82.90;;;;;;4818077;29;20065;-80
2024/02/23 07:07:51;;;;;;;2.58;1.60;;;8.80;82.90;;;;;;4792331;29;20038;-87
2024/02/23 07:10:18;;;;;;;2.55;1.70;;;8.80;82.90;;;;;;4814167;29;20486;-79
2024/02/23 07:12:45;;;;;;;3.05;1.80;;;8.80;82.80;;;;;;4797327;29;20094;-83
2024/02/23 07:15:10;;;;;;;3.92;1.80;;;8.80;82.90;;;;;;4806135;29;20026;-92
2024/02/23 07:17:36;;;;;;;3.78;1.67;;;8.80;82.80;;;;;;4802974;29;20042;-95
2024/02/23 07:20:07;;;;;;;2.03;1.60;;;8.80;82.80;;;;;;4785088;29;20091;-80
2024/02/23 07:22:33;;;;;;;3.88;1.90;;;8.80;82.90;;;;;;4808954;29;20034;-84
2024/02/23 07:25:01;;;;;;;2.13;1.55;;;8.80;82.80;;;;;;4822351;29;20058;-89
2024/02/23 07:27:31;;;;;;;1.58;1.48;;;8.80;82.80;;;;;;4806170;29;20033;-84
2024/02/23 07:29:57;;;;;;;2.60;1.70;;;8.90;82.90;;;;;;4821909;29;20496;-84
2024/02/23 07:32:24;;;;;;;3.25;1.60;;;8.80;82.80;;;;;;4798779;29;20033;-91
2024/02/23 07:34:50;;;;;;;2.30;1.60;;;8.80;82.80;;;;;;4808776;29;20191;-79
2024/02/23 07:37:15;;;;;;;3.08;1.70;;;8.80;82.80;;;;;;4785924;29;20129;-79
2024/02/23 07:39:41;;;;;;;1.88;1.52;;;8.80;82.80;;;;;;4798335;29;20032;-85
2024/02/23 07:42:10;;;;;;;2.33;1.67;;;8.90;82.90;;;;;;4810312;29;20042;-85
2024/02/23 07:44:37;;;;;;;2.65;1.58;;;8.80;82.80;;;;;;4811478;29;20015;-89
2024/02/23 07:47:03;;;;;;;2.60;1.60;;;8.80;82.80;;;;;;4801916;29;20117;-79
2024/02/23 07:49:29;;;;;;;3.60;1.60;;;8.80;82.90;;;;;;4785054;29;20042;-80
2024/02/23 07:51:55;;;;;;;2.40;1.60;;;8.80;82.80;;;;;;4810251;29;20107;-85
2024/02/23 07:54:20;;;;;;;1.55;1.40;;;8.90;82.90;;;;;;4794649;29;20039;-85
2024/02/23 07:56:47;;;;;;;2.67;1.50;;;8.90;82.90;;;;;;4793925;29;20487;-90
2024/02/23 07:59:13;;;;;;;2.85;1.70;;;8.90;82.90;;;;;;4794848;29;20038;-89
2024/02/23 08:01:40;;;;;;;3.40;2.03;;;8.90;82.90;;;;;;4811770;29;20672;-80
2024/02/23 08:04:06;;;;;;;2.45;1.58;;;8.90;82.90;;;;;;4823792;29;20029;-89
2024/02/23 08:06:32;;;;;;;2.35;1.60;;;8.90;82.90;;;;;;4819823;29;20133;-91
2024/02/23 08:08:58;;;;;;;1.90;1.58;;;8.90;82.90;;;;;;4796881;29;20114;-91
2024/02/23 08:11:24;;;;;;;4.07;1.75;;;8.90;82.90;;;;;;4809014;29;20026;-85
2024/02/23 08:13:49;;;;;;;2.05;1.60;;;8.90;82.80;;;;;;4819438;29;20033;-91
2024/02/23 08:16:18;;;;;;;5.85;1.55;;;8.90;82.90;;;;;;4811787;29;20052;-89
2024/02/23 08:18:44;;;;;;;1.92;1.50;;;8.90;82.90;;;;;;4809071;29;20583;-81
2024/02/23 08:21:13;;;;;;;2.55;1.55;;;8.90;82.80;;;;;;4826764;29;20510;-89
2024/02/23 08:23:39;;;;;;;2.20;1.50;;;9.00;82.90;;;;;;4805400;29;20030;-80
2024/02/23 08:26:05;;;;;;;2.30;1.60;;;9.00;82.90;;;;;;4821150;29;20487;-92
2024/02/23 08:28:31;;;;;;;3.72;1.60;;;9.00;82.90;;;;;;4795115;29;20055;-91
2024/02/23 08:30:58;;;;;;;1.83;1.35;;;9.00;82.90;;;;;;4797751;29;20129;-80
2024/02/23 08:33:23;;;;;;;1.90;1.52;;;9.00;82.90;;;;;;4795766;29;20026;-89
2024/02/23 08:35:50;;;;;;;2.15;1.60;;;9.00;82.90;;;;;;4817639;29;20026;-85
2024/02/23 08:38:17;;;;;;;1.77;1.50;;;9.00;82.90;;;;;;4813346;29;20027;-90
2024/02/23 08:40:48;;;;;;;3.90;1.60;;;9.00;82.90;;;;;;4830139;29;20031;-80
2024/02/23 08:43:14;;;;;;;5.15;2.00;;;9.00;82.90;;;;;;4814369;29;20046;-85
2024/02/23 08:45:40;;;;;;;3.50;1.70;;;9.00;82.80;;;;;;4789127;29;20030;-86
2024/02/23 08:48:07;;;;;;;3.53;1.48;;;9.00;82.90;;;;;;4808464;29;20030;-85
2024/02/23 08:50:34;;;;;;;2.22;1.67;;;9.00;82.90;;;;;;4808865;29;20035;-80
2024/02/23 08:53:00;;;;;;;2.70;1.50;;;9.10;82.90;;;;;;4798451;29;20050;-91
2024/02/23 08:55:25;;;;;;;3.17;1.60;;;9.10;82.90;;;;;;4810390;29;20030;-91
2024/02/23 08:57:51;;;;;;;1.88;1.55;;;9.10;82.90;;;;;;4790772;29;20033;-90
2024/02/23 09:00:17;;;;;;;2.95;1.58;;;9.10;82.90;;;;;;4792781;29;20037;-80
2024/02/23 09:02:43;;;;;;;2.88;1.50;;;9.10;82.90;;;;;;4803441;29;20510;-90
2024/02/23 09:05:09;;;;;;;3.58;1.92;;;9.10;82.90;;;;;;4802215;29;20035;-81
2024/02/23 09:07:35;;;;;;;3.15;1.75;;;9.20;82.90;;;;;;4800733;29;20421;-85
2024/02/23 09:10:04;;;;;;;2.40;1.73;;;9.20;82.90;;;;;;4792069;29;20440;-90
2024/02/23 09:12:30;;;;;;;4.57;1.70;;;9.20;82.90;;;;;;4795242;29;20126;-80
2024/02/23 09:14:56;;;;;;;2.78;1.60;;;9.20;82.90;;;;;;4787082;29;20072;-92
2024/02/23 09:17:23;;;;;;;2.63;1.40;;;9.20;82.90;;;;;;4792251;29;20030;-90
2024/02/23 09:19:49;;;;;;;1.77;1.42;;;9.20;82.90;;;;;;4828225;29;20079;-92
2024/02/23 09:22:16;;;;;;;4.18;1.58;;;9.20;82.90;;;;;;4828813;29;20037;-85
2024/02/23 09:24:42;;;;;;;2.22;1.50;;;9.30;82.90;;;;;;4808454;29;20484;-85
2024/02/23 09:27:08;;;;;;;2.13;1.50;;;9.30;82.90;;;;;;4799310;29;20054;-85
2024/02/23 09:29:34;;;;;;;4.13;1.80;;;9.30;82.90;;;;;;4807754;29;20491;-85
2024/02/23 09:32:00;;;;;;;2.38;1.50;;;9.30;82.90;;;;;;4796491;29;20038;-90
2024/02/23 09:34:27;;;;;;;2.70;1.55;;;9.30;82.80;;;;;;4812773;29;20044;-80
2024/02/23 09:36:53;;;;;;;2.10;1.38;;;9.40;82.90;;;;;;4814017;29;20062;-90
2024/02/23 09:39:20;;;;;;;2.75;1.50;;;9.40;82.90;;;;;;4799129;29;20125;-92
2024/02/23 09:41:49;;;;;;;2.00;1.30;;;9.40;82.90;;;;;;4790449;29;20050;-85
2024/02/23 09:44:17;;;;;;;2.42;1.60;;;9.40;82.90;;;;;;4822293;29;20444;-89
2024/02/23 09:46:43;;;;;;;2.50;1.65;;;9.40;82.90;;;;;;4816065;29;20030;-85
2024/02/23 09:49:12;;;;;;;2.67;1.40;;;9.40;82.90;;;;;;4787281;29;20034;-86
2024/02/23 09:51:38;;;;;;;3.35;1.50;;;9.40;83.10;;;;;;4806078;29;20026;-91
2024/02/23 09:54:04;;;;;;;2.83;1.73;;;9.50;82.90;;;;;;4809717;29;20480;-90
2024/02/23 09:56:30;;;;;;;3.40;1.85;;;9.50;82.90;;;;;;4793526;29;20415;-88
2024/02/23 09:58:59;;;;;;;2.47;1.40;;;9.50;82.90;;;;;;4821365;29;20476;-87
2024/02/23 10:01:31;;;;;;;4.18;1.70;;;9.50;82.90;;;;;;4789455;29;20050;-90
2024/02/23 10:03:57;;;;;;;2.28;1.30;;;9.50;82.90;;;;;;4785844;29;20115;-85
2024/02/23 10:06:25;;;;;;;3.20;1.60;;;9.50;82.90;;;;;;4811496;29;20058;-80
2024/02/23 10:08:50;;;;;;;2.10;1.40;;;9.50;82.90;;;;;;4819558;29;20064;-88
2024/02/23 10:11:23;;;;;;;3.67;1.70;;;9.60;82.90;;;;;;4793420;29;20031;-86
2024/02/23 10:13:50;;;;;;;2.35;1.42;;;9.60;82.90;;;;;;4784922;29;20096;-85
2024/02/23 10:16:16;;;;;;;2.70;1.65;;;9.60;82.90;;;;;;4803173;29;20399;-90
2024/02/23 10:18:42;;;;;;;2.67;1.50;;;9.60;82.90;;;;;;4789404;29;20396;-89
2024/02/23 10:21:08;;;;;;;1.50;1.40;;;9.60;82.90;;;;;;4794759;29;20099;-91
2024/02/23 10:23:34;;;;;;;3.38;1.75;;;9.60;82.90;;;;;;4802103;29;20030;-85
2024/02/23 10:26:00;;;;;;;2.97;1.73;;;9.70;82.90;;;;;;4797849;29;20039;-85
2024/02/23 10:28:27;;;;;;;4.20;1.60;;;9.70;83.00;;;;;;4815979;29;20110;-89
2024/02/23 10:30:54;;;;;;;4.47;1.70;;;9.70;82.90;;;;;;4799053;29;20035;-81
2024/02/23 10:33:27;;;;;;;3.22;1.50;;;9.70;82.90;;;;;;4808881;29;20042;-90
2024/02/23 10:35:59;;;;;;;4.57;1.63;;;9.70;82.90;;;;;;4807195;29;20530;-80
2024/02/23 10:38:26;;;;;;;3.78;1.52;;;9.70;83.10;;;;;;4808718;29;20046;-79
2024/02/23 10:40:56;;;;;;;2.47;1.50;;;9.80;82.90;;;;;;4807596;29;20022;-88
2024/02/23 10:43:44;;;;;;;2.58;1.48;;;9.80;82.90;;;;;;4814660;29;20053;-82
2024/02/23 10:46:12;;;;;;;2.00;1.50;;;9.80;82.90;;;;;;4799552;29;20149;-92
2024/02/23 10:48:43;;;;;;;4.35;1.63;;;9.80;82.80;;;;;;4803139;29;20475;-92
2024/02/23 10:51:12;;;;;;;2.83;1.65;;;9.80;82.90;;;;;;4791469;29;20502;-82
2024/02/23 10:53:39;;;;;;;2.42;1.40;;;9.80;82.90;;;;;;4793072;29;20026;-82
2024/02/23 10:56:07;;;;;;;1.88;1.40;;;9.90;82.90;;;;;;4788517;29;20101;-80
2024/02/23 10:58:35;;;;;;;2.30;1.40;;;9.90;83.00;;;;;;4791134;29;20035;-88
2024/02/23 11:01:04;;;;;;;2.97;1.50;;;9.90;82.90;;;;;;4787086;29;20034;-85
2024/02/23 11:03:31;;;;;;;1.90;1.38;;;9.90;82.90;;;;;;4822690;29;20070;-85
2024/02/23 11:06:00;;;;;;;2.80;1.58;;;9.90;82.90;;;;;;4808769;29;20492;-89
2024/02/23 11:08:30;;;;;;;1.45;1.27;;;9.90;82.90;;;;;;4822723;29;20038;-85
2024/02/23 11:10:55;;;;;;;2.25;1.40;;;9.90;82.90;;;;;;4802440;29;20031;-85
2024/02/23 11:13:34;;;;;;;2.22;1.25;;;10.00;82.90;;;;;;4815135;29;20095;-91
2024/02/23 11:16:04;;;;;;;1.67;1.30;;;10.00;82.90;;;;;;4805979;29;20031;-85
2024/02/23 11:18:32;;;;;;;2.42;1.80;;;10.00;82.90;;;;;;4805106;29;20034;-85
2024/02/23 11:21:05;;;;;;;2.10;1.35;;;10.00;82.90;;;;;;4812137;29;20037;-85
2024/02/23 11:23:44;;;;;;;2.05;1.38;;;10.00;82.80;;;;;;4807182;29;20065;-83
2024/02/23 11:26:11;;;;;;;3.42;1.60;;;10.10;82.80;;;;;;4829858;29;20058;-85
2024/02/23 11:28:50;;;;;;;1.65;1.30;;;10.10;82.80;;;;;;4807892;29;20459;-89
2024/02/23 11:31:28;;;;;;;1.90;1.35;;;10.10;82.80;;;;;;4820286;29;20517;-88
2024/02/23 11:33:55;;;;;;;2.95;1.42;;;10.10;82.70;;;;;;4810942;29;20053;-91
2024/02/23 11:36:27;;;;;;;1.40;1.30;;;10.10;82.70;;;;;;4810404;29;20415;-89
2024/02/23 11:39:00;;;;;;;2.10;1.35;;;10.10;82.70;;;;;;4796028;29;20038;-81
2024/02/23 11:41:28;;;;;;;1.45;1.30;;;10.20;82.80;;;;;;4808224;29;20039;-90
2024/02/23 11:44:01;;;;;;;2.67;1.70;;;10.10;82.70;;;;;;4799707;29;20042;-88
2024/02/23 11:46:26;;;;;;;1.98;1.30;;;10.20;82.70;;;;;;4792387;29;20087;-88
2024/02/23 11:48:56;;;;;;;1.48;1.30;;;10.20;82.70;;;;;;4811051;29;20050;-88
2024/02/23 11:51:24;;;;;;;3.55;1.30;;;10.20;82.60;;;;;;4797420;29;20077;-85
2024/02/23 11:53:50;;;;;;;2.17;1.42;;;10.20;82.60;;;;;;4829196;29;20046;-90
2024/02/23 11:56:18;;;;;;;1.63;1.30;;;10.20;82.60;;;;;;4823499;29;20033;-82
2024/02/23 11:58:44;;;;;;;2.13;1.48;;;10.30;82.60;;;;;;4796638;29;20555;-84
2024/02/23 12:01:09;;;;;;;1.58;1.33;;;10.30;82.60;;;;;;4810030;29;20503;-82
2024/02/23 12:03:35;;;;;;;1.52;1.40;;;10.30;82.60;;;;;;4786504;29;20031;-88
2024/02/23 12:06:02;;;;;;;2.15;1.20;;;10.30;82.60;;;;;;4795206;29;20487;-90
2024/02/23 12:08:31;;;;;;;2.97;1.42;;;10.30;82.60;;;;;;4806373;29;20061;-85
2024/02/23 12:10:59;;;;;;;2.70;1.35;;;10.30;82.50;;;;;;4808004;29;20038;-89
2024/02/23 12:13:26;;;;;;;2.10;1.30;;;10.30;82.50;;;;;;4820371;29;20496;-81
2024/02/23 12:15:53;;;;;;;1.75;1.38;;;10.40;82.60;;;;;;4794404;29;20428;-81
2024/02/23 12:18:31;;;;;;;2.28;1.27;;;10.40;82.50;;;;;;4810360;29;20027;-88
2024/02/23 12:21:02;;;;;;;2.28;1.45;;;10.40;82.50;;;;;;4804828;29;20054;-81
2024/02/23 12:23:47;;;;;;;1.85;1.33;;;10.40;82.50;;;;;;4811044;29;20082;-91
2024/02/23 12:26:15;;;;;;;2.40;1.50;;;10.40;82.40;;;;;;4837588;29;20037;-88
2024/02/23 12:28:41;;;;;;;1.50;1.40;;;10.40;82.40;;;;;;4831048;29;20046;-89
2024/02/23 12:31:08;;;;;;;1.60;1.25;;;10.50;82.40;;;;;;4790793;29;20110;-81
2024/02/23 12:33:37;;;;;;;4.32;1.75;;;10.50;82.40;;;;;;4794136;29;20460;-84
2024/02/23 12:36:04;;;;;;;2.60;1.48;;;10.50;82.40;;;;;;4792398;29;20114;-89
2024/02/23 12:38:30;;;;;;;2.20;1.50;;;10.50;82.30;;;;;;4794085;29;20487;-85
2024/02/23 12:40:56;;;;;;;1.42;1.27;;;10.50;82.30;;;;;;4834949;29;20064;-81
2024/02/23 12:43:26;;;;;;;2.50;1.40;;;10.50;82.30;;;;;;4808128;29;20062;-84
2024/02/23 12:45:54;;;;;;;1.40;1.30;;;10.50;82.30;;;;;;4809617;29;20034;-81
2024/02/23 12:48:22;;;;;;;3.20;1.45;;;10.50;82.30;;;;;;4795844;29;20052;-88
2024/02/23 12:50:49;;;;;;;3.03;1.30;;;10.60;82.30;;;;;;4799222;29;20035;-90